createdAt,value
2022-12-24T00:02:23.217Z,-0.10
2022-12-24T00:04:53.066Z,-0.20
2022-12-24T00:07:24.152Z,-0.30
2022-12-24T00:09:50.914Z,-0.20
2022-12-24T00:12:17.800Z,-0.20
2022-12-24T00:14:44.688Z,-0.20
2022-12-24T00:17:11.678Z,-0.20
2022-12-24T00:19:38.504Z,-0.10
2022-12-24T00:22:05.302Z,-0.10
2022-12-24T00:24:32.168Z,-0.10
2022-12-24T00:26:59.070Z,-0.10
2022-12-24T00:29:26.010Z,-0.20
2022-12-24T00:31:52.863Z,0.60
2022-12-24T00:34:20.308Z,-0.30
2022-12-24T00:36:47.569Z,-0.30
2022-12-24T00:39:14.487Z,-0.30
2022-12-24T00:41:41.306Z,-0.10
2022-12-24T00:44:10.424Z,-0.20
2022-12-24T00:46:38.461Z,-0.20
2022-12-24T00:49:06.373Z,-0.20
2022-12-24T00:51:33.718Z,-0.20
2022-12-24T00:54:00.643Z,-0.20
2022-12-24T00:56:27.738Z,-0.40
2022-12-24T00:58:54.806Z,0.70
2022-12-24T01:01:22.230Z,-0.30
2022-12-24T01:03:49.360Z,-0.30
2022-12-24T01:06:17.787Z,-0.50
2022-12-24T01:08:44.872Z,-0.50
2022-12-24T01:11:12.646Z,-0.40
2022-12-24T01:13:39.978Z,-0.30
2022-12-24T01:16:14.390Z,-0.30
2022-12-24T01:18:41.425Z,-0.30
2022-12-24T01:21:08.300Z,-0.40
2022-12-24T01:23:35.120Z,-0.40
2022-12-24T01:26:02.946Z,-0.40
2022-12-24T01:28:30.020Z,-0.50
2022-12-24T01:30:57.022Z,-0.50
2022-12-24T01:33:23.915Z,-0.50
2022-12-24T01:35:50.755Z,-0.50
2022-12-24T01:38:17.602Z,-0.50
2022-12-24T01:41:03.214Z,-0.60
2022-12-24T01:43:32.146Z,-0.60
2022-12-24T01:46:01.897Z,-0.70
2022-12-24T01:48:28.938Z,-0.80
2022-12-24T01:50:58.327Z,-0.80
2022-12-24T01:53:25.360Z,-0.70
2022-12-24T01:55:52.480Z,-0.70
2022-12-24T01:58:20.689Z,-0.70
2022-12-24T02:00:51.332Z,-0.70
2022-12-24T02:03:18.926Z,-0.60
2022-12-24T02:05:50.945Z,-0.70
2022-12-24T02:08:18.726Z,-0.80
2022-12-24T02:10:46.319Z,-0.80
2022-12-24T02:13:14.417Z,-1.00
2022-12-24T02:15:56.437Z,1.30
2022-12-24T02:18:34.761Z,-1.00
2022-12-24T02:21:10.365Z,-1.00
2022-12-24T02:23:55.935Z,-1.10
2022-12-24T02:26:42.068Z,-1.10
2022-12-24T02:29:27.729Z,-1.10
2022-12-24T02:32:02.256Z,-1.00
2022-12-24T02:34:35.197Z,-0.90
2022-12-24T02:37:12.549Z,-1.10
2022-12-24T02:39:41.912Z,-1.20
2022-12-24T02:42:10.503Z,-1.20
2022-12-24T02:44:49.861Z,-1.20
2022-12-24T02:47:18.220Z,-1.20
2022-12-24T02:49:47.396Z,-1.10
2022-12-24T02:52:30.249Z,-1.10
2022-12-24T02:54:58.926Z,-1.10
2022-12-24T02:57:29.841Z,-1.10
2022-12-24T02:59:59.657Z,-1.10
2022-12-24T03:02:29.400Z,-1.20
2022-12-24T03:04:56.377Z,-1.30
2022-12-24T03:07:45.287Z,-1.40
2022-12-24T03:10:17.136Z,-1.50
2022-12-24T03:12:49.374Z,-1.70
2022-12-24T03:15:17.762Z,-1.70
2022-12-24T03:17:46.541Z,-1.70
2022-12-24T03:20:15.180Z,-1.80
2022-12-24T03:22:42.224Z,-1.90
2022-12-24T03:25:09.069Z,-1.90
2022-12-24T03:27:36.945Z,-1.90
2022-12-24T03:30:08.276Z,-1.90
2022-12-24T03:32:35.170Z,-1.90
2022-12-24T03:35:02.854Z,-2.00
2022-12-24T03:37:29.765Z,-2.00
2022-12-24T03:39:56.657Z,-2.10
2022-12-24T03:42:23.681Z,-2.10
2022-12-24T03:44:50.663Z,-2.10
2022-12-24T03:47:17.496Z,-2.10
2022-12-24T03:49:44.450Z,-2.00
2022-12-24T03:52:11.300Z,-2.10
2022-12-24T03:54:38.562Z,-2.10
2022-12-24T03:57:05.398Z,-2.10
2022-12-24T03:59:32.177Z,-2.10
2022-12-24T04:01:59.421Z,-2.20
2022-12-24T04:04:26.520Z,-2.20
2022-12-24T04:06:53.723Z,-2.20
2022-12-24T04:09:20.506Z,-2.20
2022-12-24T04:11:47.382Z,-2.30
2022-12-24T04:14:14.239Z,-2.40
2022-12-24T04:16:41.206Z,-2.50
2022-12-24T04:19:08.154Z,-2.60
2022-12-24T04:21:34.918Z,-2.60
2022-12-24T04:24:01.745Z,-2.60
2022-12-24T04:26:28.567Z,-2.70
2022-12-24T04:28:55.548Z,-2.80
2022-12-24T04:31:22.771Z,-2.80
2022-12-24T04:33:51.326Z,-2.70
2022-12-24T04:36:19.362Z,-2.60
2022-12-24T04:38:47.006Z,-2.60
2022-12-24T04:41:23.170Z,-2.70
2022-12-24T04:43:52.131Z,-2.80
2022-12-24T04:46:21.056Z,-2.70
2022-12-24T04:48:49.096Z,-2.50
2022-12-24T04:51:16.708Z,-2.50
2022-12-24T04:53:43.973Z,-2.50
2022-12-24T04:56:15.528Z,-2.50
2022-12-24T04:58:42.596Z,-2.50
2022-12-24T05:01:12.946Z,-2.50
2022-12-24T05:03:39.991Z,-2.50
2022-12-24T05:06:08.417Z,-2.50
2022-12-24T05:08:35.195Z,-2.60
2022-12-24T05:11:02.675Z,-2.80
2022-12-24T05:13:37.655Z,-2.80
2022-12-24T05:16:07.526Z,-2.80
2022-12-24T05:18:35.070Z,-2.80
2022-12-24T05:21:02.145Z,-2.70
2022-12-24T05:23:48.400Z,-2.60
2022-12-24T05:26:22.449Z,-2.50
2022-12-24T05:28:55.974Z,-2.50
2022-12-24T05:31:23.371Z,-2.30
2022-12-24T05:33:50.060Z,-2.30
2022-12-24T05:36:16.947Z,-2.30
2022-12-24T05:38:43.563Z,-2.40
2022-12-24T05:41:10.167Z,-2.60
2022-12-24T05:43:37.391Z,-2.80
2022-12-24T05:46:06.227Z,-3.00
2022-12-24T05:48:32.963Z,-3.30
2022-12-24T05:50:59.766Z,-3.40
2022-12-24T05:53:26.349Z,-3.60
2022-12-24T05:55:52.965Z,-3.60
2022-12-24T05:58:19.563Z,-3.40
2022-12-24T06:00:46.158Z,-3.30
2022-12-24T06:03:12.783Z,-3.40
2022-12-24T06:05:41.421Z,-3.60
2022-12-24T06:08:08.058Z,-3.70
2022-12-24T06:10:34.839Z,-3.80
2022-12-24T06:13:01.442Z,-3.80
2022-12-24T06:15:28.069Z,-3.90
2022-12-24T06:17:54.706Z,-3.90
2022-12-24T06:20:21.400Z,-3.80
2022-12-24T06:22:48.071Z,-3.70
2022-12-24T06:25:14.861Z,-3.50
2022-12-24T06:27:41.463Z,-3.30
2022-12-24T06:30:08.429Z,-3.30
2022-12-24T06:32:35.044Z,-3.40
2022-12-24T06:35:01.636Z,-3.40
2022-12-24T06:37:28.415Z,-3.30
2022-12-24T06:39:55.025Z,-3.50
2022-12-24T06:42:21.636Z,-2.10
2022-12-24T06:44:48.466Z,-3.40
2022-12-24T06:47:15.095Z,-3.40
2022-12-24T06:49:41.766Z,-3.30
2022-12-24T06:52:08.587Z,-3.10
2022-12-24T06:54:35.198Z,-3.00
2022-12-24T06:57:01.962Z,-3.00
2022-12-24T06:59:28.589Z,-3.10
2022-12-24T07:01:55.308Z,-3.20
2022-12-24T07:04:22.069Z,-3.20
2022-12-24T07:06:48.735Z,-3.20
2022-12-24T07:09:15.649Z,-1.80
2022-12-24T07:11:42.385Z,-3.10
2022-12-24T07:14:09.129Z,-3.10
2022-12-24T07:16:36.085Z,-3.00
2022-12-24T07:19:02.802Z,-3.00
2022-12-24T07:21:32.900Z,-3.20
2022-12-24T07:23:59.529Z,-3.50
2022-12-24T07:26:26.563Z,-3.80
2022-12-24T07:28:53.438Z,-4.00
2022-12-24T07:31:20.296Z,-4.20
2022-12-24T07:33:47.079Z,-4.20
2022-12-24T07:36:21.099Z,-3.90
2022-12-24T07:38:48.045Z,-4.50
2022-12-24T07:41:14.902Z,-4.60
2022-12-24T07:43:41.623Z,-4.60
2022-12-24T07:46:08.487Z,-4.70
2022-12-24T07:48:35.174Z,-4.80
2022-12-24T07:51:01.848Z,-4.70
2022-12-24T07:53:29.802Z,-4.70
2022-12-24T07:55:56.438Z,-4.40
2022-12-24T07:58:23.149Z,-4.30
2022-12-24T08:00:49.822Z,-4.10
2022-12-24T08:03:17.817Z,-3.90
2022-12-24T08:05:44.852Z,-3.80
2022-12-24T08:08:11.539Z,-3.90
2022-12-24T08:10:42.105Z,-3.90
2022-12-24T08:13:08.946Z,-3.70
2022-12-24T08:15:35.583Z,-3.50
2022-12-24T08:18:02.196Z,-3.40
2022-12-24T08:20:28.811Z,-3.40
2022-12-24T08:22:55.404Z,-3.30
2022-12-24T08:25:22.183Z,-3.30
2022-12-24T08:27:48.769Z,-3.40
2022-12-24T08:30:20.774Z,-3.40
2022-12-24T08:32:48.097Z,-3.30
2022-12-24T08:35:14.787Z,-3.40
2022-12-24T08:37:41.376Z,-3.50
2022-12-24T08:40:08.335Z,-3.30
2022-12-24T08:42:35.027Z,-3.10
2022-12-24T08:45:01.782Z,-3.00
2022-12-24T08:47:28.377Z,-2.80
2022-12-24T08:49:54.957Z,-2.70
2022-12-24T08:52:21.596Z,-2.60
2022-12-24T08:54:48.240Z,-2.50
2022-12-24T08:57:15.095Z,-2.60
2022-12-24T08:59:41.720Z,-2.70
2022-12-24T09:02:08.962Z,-2.80
2022-12-24T09:04:40.162Z,-2.90
2022-12-24T09:07:07.347Z,-3.00
2022-12-24T09:09:37.933Z,-2.90
2022-12-24T09:12:06.077Z,-2.70
2022-12-24T09:14:32.748Z,-2.70
2022-12-24T09:17:00.000Z,-0.40
2022-12-24T09:19:27.676Z,-2.70
2022-12-24T09:21:54.287Z,-2.70
2022-12-24T09:24:21.069Z,-2.70
2022-12-24T09:26:55.677Z,-2.60
2022-12-24T09:29:24.447Z,-2.60
2022-12-24T09:31:51.233Z,-2.70
2022-12-24T09:34:17.889Z,-2.70
2022-12-24T09:36:46.345Z,-2.70
2022-12-24T09:39:13.336Z,-2.60
2022-12-24T09:41:43.053Z,-2.50
2022-12-24T09:44:28.679Z,-2.30
2022-12-24T09:46:56.205Z,-2.20
2022-12-24T09:49:25.164Z,-2.00
2022-12-24T09:51:57.345Z,-1.80
2022-12-24T09:54:31.888Z,-1.60
2022-12-24T09:57:01.558Z,-1.40
2022-12-24T09:59:47.060Z,-1.40
2022-12-24T10:02:15.248Z,-1.50
2022-12-24T10:04:42.965Z,-1.40
2022-12-24T10:07:30.811Z,-1.50
2022-12-24T10:10:09.767Z,-1.40
2022-12-24T10:12:49.516Z,-1.30
2022-12-24T10:15:24.544Z,-1.20
2022-12-24T10:18:00.308Z,-1.10
2022-12-24T10:20:43.506Z,-1.10
2022-12-24T10:23:20.841Z,-1.00
2022-12-24T10:26:01.980Z,-0.80
2022-12-24T10:28:34.540Z,-0.70
2022-12-24T10:31:03.527Z,-0.60
2022-12-24T10:33:56.933Z,-0.60
2022-12-24T10:36:26.899Z,-0.60
2022-12-24T10:38:53.672Z,1.50
2022-12-24T10:41:20.384Z,-0.70
2022-12-24T10:43:47.550Z,-0.60
2022-12-24T10:46:19.996Z,-0.60
2022-12-24T10:49:00.776Z,-0.60
2022-12-24T10:51:36.753Z,-0.50
2022-12-24T10:54:14.391Z,-0.50
2022-12-24T10:56:48.074Z,-0.40
2022-12-24T10:59:33.578Z,-0.40
2022-12-24T11:02:01.175Z,-0.40
2022-12-24T11:04:32.511Z,-0.30
2022-12-24T11:07:03.793Z,-0.80
2022-12-24T11:09:32.365Z,0.00
2022-12-24T11:12:05.233Z,1.40
2022-12-24T11:14:37.487Z,-0.10
2022-12-24T11:17:04.795Z,-0.20
2022-12-24T11:19:32.984Z,-0.20
2022-12-24T11:22:01.642Z,-0.20
2022-12-24T11:24:30.236Z,-0.20
2022-12-24T11:27:17.005Z,-0.20
2022-12-24T11:29:43.707Z,-0.20
2022-12-24T11:32:21.314Z,-0.20
2022-12-24T11:34:48.443Z,-0.10
2022-12-24T11:37:17.294Z,0.00
2022-12-24T11:39:48.999Z,0.10
2022-12-24T11:42:28.436Z,0.20
2022-12-24T11:44:56.633Z,0.30
2022-12-24T11:47:32.141Z,0.40
2022-12-24T11:50:31.854Z,0.40
2022-12-24T11:53:07.753Z,0.30
2022-12-24T11:55:37.695Z,0.40
2022-12-24T11:58:23.201Z,0.40
2022-12-24T12:00:51.078Z,0.40
2022-12-24T12:03:32.452Z,0.30
2022-12-24T12:06:01.448Z,0.30
2022-12-24T12:08:28.879Z,0.30
2022-12-24T12:10:57.750Z,0.40
2022-12-24T12:13:33.399Z,0.40
2022-12-24T12:16:19.334Z,0.40
2022-12-24T12:18:49.618Z,0.30
2022-12-24T12:21:18.958Z,0.30
2022-12-24T12:23:59.056Z,0.30
2022-12-24T12:26:27.512Z,0.40
2022-12-24T12:28:56.107Z,0.40
2022-12-24T12:31:25.852Z,2.40
2022-12-24T12:33:52.459Z,0.60
2022-12-24T12:36:21.759Z,0.70
2022-12-24T12:38:50.358Z,0.70
2022-12-24T12:41:20.007Z,0.70
2022-12-24T12:44:05.595Z,0.70
2022-12-24T12:46:41.433Z,0.90
2022-12-24T12:49:08.070Z,1.00
2022-12-24T12:51:40.334Z,1.00
2022-12-24T12:54:15.034Z,0.90
2022-12-24T12:56:45.033Z,0.90
2022-12-24T12:59:27.471Z,0.80
2022-12-24T13:01:57.824Z,0.80
2022-12-24T13:04:33.276Z,0.80
2022-12-24T13:07:00.196Z,0.80
2022-12-24T13:09:27.048Z,0.80
2022-12-24T13:12:18.335Z,0.80
2022-12-24T13:14:53.903Z,0.90
2022-12-24T13:17:39.022Z,0.90
2022-12-24T13:20:09.026Z,0.90
2022-12-24T13:22:36.006Z,0.90
2022-12-24T13:25:02.728Z,0.80
2022-12-24T13:27:31.626Z,0.80
2022-12-24T13:30:08.911Z,0.70
2022-12-24T13:32:38.689Z,1.10
2022-12-24T13:35:20.871Z,2.20
2022-12-24T13:37:47.981Z,0.70
2022-12-24T13:40:24.748Z,0.80
2022-12-24T13:43:07.595Z,0.80
2022-12-24T13:45:34.419Z,0.70
2022-12-24T13:48:07.073Z,0.50
2022-12-24T13:50:38.397Z,0.50
2022-12-24T13:53:06.586Z,0.40
2022-12-24T13:55:33.589Z,0.70
2022-12-24T13:58:02.716Z,0.40
2022-12-24T14:00:34.509Z,0.40
2022-12-24T14:03:04.417Z,0.40
2022-12-24T14:05:34.292Z,0.30
2022-12-24T14:08:03.145Z,0.30
2022-12-24T14:10:50.318Z,0.30
2022-12-24T14:13:35.639Z,0.30
2022-12-24T14:16:03.164Z,0.30
2022-12-24T14:18:34.093Z,0.30
2022-12-24T14:21:01.173Z,0.40
2022-12-24T14:23:47.029Z,0.50
2022-12-24T14:26:21.453Z,0.50
2022-12-24T14:29:03.759Z,0.50
2022-12-24T14:31:30.495Z,0.40
2022-12-24T14:34:08.133Z,0.30
2022-12-24T14:36:35.437Z,0.30
2022-12-24T14:39:02.575Z,0.30
2022-12-24T14:41:44.206Z,0.30
2022-12-24T14:44:23.487Z,0.30
2022-12-24T14:46:56.477Z,0.40
2022-12-24T14:49:41.919Z,0.40
2022-12-24T14:52:45.992Z,0.30
2022-12-24T14:55:24.558Z,0.20
2022-12-24T14:57:51.408Z,0.30
2022-12-24T15:00:20.000Z,0.40
2022-12-24T15:02:48.191Z,0.40
2022-12-24T15:05:16.605Z,0.30
2022-12-24T15:07:49.869Z,0.20
2022-12-24T15:10:24.888Z,0.10
2022-12-24T15:12:51.782Z,0.00
2022-12-24T15:15:18.980Z,-0.10
2022-12-24T15:17:46.231Z,-0.10
2022-12-24T15:20:18.125Z,-0.20
2022-12-24T15:22:46.725Z,-0.10
2022-12-24T15:25:32.763Z,-0.10
2022-12-24T15:27:59.890Z,-0.10
2022-12-24T15:30:28.988Z,0.10
2022-12-24T15:32:56.886Z,-0.10
2022-12-24T15:35:34.741Z,-0.20
2022-12-24T15:38:03.044Z,-0.20
2022-12-24T15:40:29.917Z,-0.10
2022-12-24T15:42:56.763Z,-0.10
2022-12-24T15:45:28.348Z,-0.10
2022-12-24T15:47:58.228Z,-0.10
2022-12-24T15:50:28.180Z,0.00
2022-12-24T15:53:20.274Z,0.00
2022-12-24T15:55:44.280Z,0.10
2022-12-24T15:58:25.485Z,0.10
2022-12-24T16:01:02.785Z,0.20
2022-12-24T16:03:29.678Z,0.30
2022-12-24T16:06:03.969Z,0.40
2022-12-24T16:08:41.314Z,0.30
2022-12-24T16:11:23.809Z,0.10
2022-12-24T16:13:50.439Z,0.00
2022-12-24T16:16:19.360Z,-0.20
2022-12-24T16:18:51.920Z,-0.40
2022-12-24T16:21:20.085Z,-0.40
2022-12-24T16:23:48.556Z,-0.50
2022-12-24T16:26:15.291Z,-0.60
2022-12-24T16:28:42.156Z,-0.30
2022-12-24T16:31:15.277Z,-1.00
2022-12-24T16:33:42.229Z,-1.10
2022-12-24T16:36:09.028Z,-1.10
2022-12-24T16:38:56.002Z,-1.20
2022-12-24T16:41:23.017Z,-1.10
2022-12-24T16:43:49.718Z,0.00
2022-12-24T16:46:16.853Z,-1.10
2022-12-24T16:48:46.073Z,-1.10
2022-12-24T16:51:13.015Z,-1.10
2022-12-24T16:53:39.936Z,-0.80
2022-12-24T16:56:06.690Z,-0.90
2022-12-24T16:58:33.544Z,-0.90
2022-12-24T17:01:05.822Z,-0.90
2022-12-24T17:03:32.732Z,-0.90
2022-12-24T17:06:00.713Z,-0.70
2022-12-24T17:08:27.406Z,-0.60
2022-12-24T17:10:54.133Z,-0.60
2022-12-24T17:13:20.929Z,-0.70
2022-12-24T17:15:47.876Z,-0.60
2022-12-24T17:18:14.612Z,-0.50
2022-12-24T17:20:41.412Z,-0.30
2022-12-24T17:23:08.245Z,-0.30
2022-12-24T17:25:35.784Z,-0.30
2022-12-24T17:28:02.466Z,-0.40
2022-12-24T17:30:29.359Z,-0.60
2022-12-24T17:32:56.099Z,-0.70
2022-12-24T17:35:22.808Z,-0.90
2022-12-24T17:37:49.580Z,-1.00
2022-12-24T17:40:16.473Z,-1.00
2022-12-24T17:42:43.642Z,-0.90
2022-12-24T17:45:10.570Z,0.40
2022-12-24T17:47:37.282Z,-1.20
2022-12-24T17:50:04.221Z,-0.40
2022-12-24T17:52:30.951Z,-1.00
2022-12-24T17:54:57.688Z,-1.00
2022-12-24T17:57:24.484Z,-0.90
2022-12-24T17:59:51.220Z,-0.80
2022-12-24T18:02:18.288Z,0.40
2022-12-24T18:04:45.078Z,-0.50
2022-12-24T18:07:11.850Z,1.40
2022-12-24T18:09:38.632Z,-0.60
2022-12-24T18:12:05.788Z,-0.60
2022-12-24T18:14:32.565Z,-0.50
2022-12-24T18:16:59.355Z,-0.40
2022-12-24T18:19:26.236Z,-0.50
2022-12-24T18:21:53.081Z,-0.50
2022-12-24T18:24:19.848Z,-0.50
2022-12-24T18:26:46.967Z,-0.50
2022-12-24T18:29:13.839Z,-0.50
2022-12-24T18:31:40.823Z,-0.50
2022-12-24T18:34:09.209Z,-0.50
2022-12-24T18:36:36.347Z,0.80
2022-12-24T18:39:03.620Z,-0.50
2022-12-24T18:41:31.203Z,-0.60
2022-12-24T18:43:58.734Z,-0.50
2022-12-24T18:46:26.635Z,-0.50
2022-12-24T18:48:54.334Z,-0.50
2022-12-24T18:51:22.534Z,-0.40
2022-12-24T18:53:50.019Z,-0.40
2022-12-24T18:56:21.284Z,-0.40
2022-12-24T18:58:47.944Z,-0.20
2022-12-24T19:01:15.923Z,-0.20
2022-12-24T19:03:43.335Z,1.00
2022-12-24T19:06:10.153Z,-0.10
2022-12-24T19:11:24.150Z,1.90
2022-12-24T19:13:51.089Z,0.00
2022-12-24T19:16:18.263Z,0.10
2022-12-24T19:18:45.166Z,0.10
2022-12-24T19:21:12.817Z,0.20
2022-12-24T19:23:39.539Z,1.90
2022-12-24T19:26:06.517Z,0.40
2022-12-24T19:28:33.607Z,0.40
2022-12-24T19:31:04.954Z,0.40
2022-12-24T19:33:41.951Z,0.40
2022-12-24T19:36:10.313Z,0.40
2022-12-24T19:38:37.257Z,0.40
2022-12-24T19:41:14.454Z,0.30
2022-12-24T19:43:42.364Z,0.30
2022-12-24T19:46:10.091Z,1.00
2022-12-24T19:48:37.311Z,0.20
2022-12-24T19:51:05.797Z,0.20
2022-12-24T19:53:33.042Z,0.20
2022-12-24T19:56:00.133Z,0.20
2022-12-24T19:58:27.354Z,0.00
2022-12-24T20:00:54.314Z,0.00
2022-12-24T20:03:21.654Z,-0.10
2022-12-24T20:05:48.529Z,-0.10
2022-12-24T20:08:15.425Z,-0.10
2022-12-24T20:10:43.471Z,0.00
2022-12-24T20:13:10.274Z,-0.10
2022-12-24T20:15:40.970Z,0.00
2022-12-24T20:18:08.473Z,0.00
2022-12-24T20:20:35.358Z,1.90
2022-12-24T20:23:02.746Z,0.10
2022-12-24T20:25:29.370Z,0.10
2022-12-24T20:27:58.474Z,0.10
2022-12-24T20:30:25.285Z,0.10
2022-12-24T20:32:55.408Z,0.10
2022-12-24T20:35:23.177Z,0.20
2022-12-24T20:37:50.310Z,0.20
2022-12-24T20:40:17.138Z,0.30
2022-12-24T20:42:43.758Z,0.40
2022-12-24T20:45:10.534Z,0.30
2022-12-24T20:47:37.173Z,0.30
2022-12-24T20:50:04.121Z,0.30
2022-12-24T20:52:30.796Z,0.40
2022-12-24T20:54:57.470Z,0.40
2022-12-24T20:57:27.840Z,0.40
2022-12-24T20:59:56.873Z,0.40
2022-12-24T21:02:23.737Z,0.50
2022-12-24T21:04:50.611Z,0.50
2022-12-24T21:07:17.271Z,0.60
2022-12-24T21:09:44.090Z,0.60
2022-12-24T21:12:29.901Z,0.60
2022-12-24T21:14:56.947Z,0.60
2022-12-24T21:17:23.741Z,0.70
2022-12-24T21:19:50.562Z,0.80
2022-12-24T21:22:17.241Z,0.90
2022-12-24T21:24:43.956Z,1.00
2022-12-24T21:27:10.877Z,1.00
2022-12-24T21:29:37.553Z,1.00
2022-12-24T21:32:04.347Z,1.00
2022-12-24T21:34:31.073Z,1.10
2022-12-24T21:36:57.730Z,1.00
2022-12-24T21:39:24.578Z,1.00
2022-12-24T21:41:51.310Z,1.00
2022-12-24T21:44:18.352Z,2.70
2022-12-24T21:46:45.364Z,1.10
2022-12-24T21:49:30.728Z,1.10
2022-12-24T21:51:58.487Z,1.10
2022-12-24T21:54:30.542Z,1.10
2022-12-24T21:57:18.212Z,1.10
2022-12-24T21:59:45.380Z,1.20
2022-12-24T22:02:13.540Z,1.20
2022-12-24T22:04:41.070Z,1.20
2022-12-24T22:07:26.214Z,1.20
2022-12-24T22:10:11.591Z,1.20
2022-12-24T22:12:38.214Z,1.30
2022-12-24T22:15:05.827Z,1.30
2022-12-24T22:17:32.543Z,1.20
2022-12-24T22:19:59.347Z,1.20
2022-12-24T22:22:26.176Z,3.30
2022-12-24T22:24:52.886Z,1.10
2022-12-24T22:27:19.661Z,3.00
2022-12-24T22:29:46.807Z,1.00
2022-12-24T22:32:13.592Z,0.90
2022-12-24T22:34:40.572Z,2.10
2022-12-24T22:37:07.223Z,0.80
2022-12-24T22:39:33.988Z,0.80
2022-12-24T22:42:00.945Z,0.80
2022-12-24T22:44:27.663Z,0.80
2022-12-24T22:46:54.399Z,0.80
2022-12-24T22:49:21.420Z,0.80
2022-12-24T22:51:48.050Z,1.10
2022-12-24T22:54:14.917Z,0.70
2022-12-24T22:56:41.985Z,-0.20
2022-12-24T22:59:09.774Z,0.60
2022-12-24T23:01:37.805Z,0.70
2022-12-24T23:04:06.019Z,0.80
2022-12-24T23:06:33.254Z,0.70
2022-12-24T23:08:59.996Z,0.80
2022-12-24T23:11:26.788Z,0.80
2022-12-24T23:14:12.478Z,0.90
2022-12-24T23:16:39.181Z,0.90
2022-12-24T23:19:06.620Z,2.20
2022-12-24T23:21:33.960Z,0.90
2022-12-24T23:24:01.290Z,1.00
2022-12-24T23:26:28.723Z,1.10
2022-12-24T23:28:55.571Z,1.10
2022-12-24T23:31:23.339Z,1.20
2022-12-24T23:33:50.462Z,1.20
2022-12-24T23:36:17.201Z,1.20
2022-12-24T23:38:43.922Z,1.20
2022-12-24T23:41:11.052Z,3.00
2022-12-24T23:43:37.970Z,1.10
2022-12-24T23:46:05.309Z,1.10
2022-12-24T23:48:32.459Z,1.10
2022-12-24T23:51:06.764Z,1.10
2022-12-24T23:53:34.027Z,1.00
2022-12-24T23:56:00.959Z,0.90
2022-12-24T23:58:29.960Z,0.80
